Flugplatz Weipertshofen (UL)

Hier findest Du alle Informationen zum Flugplatz Weipertshofen (UL).

Informationen für Piloten zum Flugplatz Weipertshofen

Hier findest Du alle relevanten Informationen, die Du als Pilot benötigst, um Weipertshofen anzufliegen.

Flugplatz: Weipertshofen ICAO-Code: UL Flugplatz
Frequenz Turm: 123.35 Mhz GAFOR Gebiet: 52
Frequenz Ground: 123.35 Mhz Mogas: ja
Platzrunde: N 2300 ft Landegebühr: 0 €
Platzhöhe: Sunrise: 06:57 Uhr UTC
Pisten: 11/29 - 450 m x 25 m, GRAS Sunset: 16:05 Uhr UTC

Mitglieder, die in Weipertshofen fliegen

Flugwetter am Flugplatz Weipertshofen

Die METAR Information stammen aus EDDS (79.34 km entfernt).

METAR Code:
2020/01/18 18:20
EDDS 181820Z VRB01KT 9999 VCSH SCT017 FEW025TCU 03/01 Q1027 NOSIG

Flugschulen am Flugplatz Weipertshofen

Am Flugplatz Weipertshofen gibt es leider keine Flugschule.

Benachbarte Flugplätze und Flugschulen

Es gibt 25 weitere Flugplätze in einem Umkreis von 50 km um den Flugplatz Weipertshofen.

Jetzt anmelden

Passwort vergessen

Umfrage Archiv

Lasst Ihr Euch bei Überlandflügen von FIS begleiten?

Ja, immer!
43.6 %
Ja, unregelmäßig!
29.4 %
Ja, aber nur selten!
17.2 %
Nein, nie!
9.8 %
Stimmen: 163 | Diskussion
Anzeige: Roland Aircraft
Statistik Alle Mitglieder

Aktuell sind 21 Besucher online, davon 3 Mitglieder und 18 Gäste.


Mitglieder online:
RayB  Tilak  Moretea 

Anzeige: VFR Sprechfunk Simulator


Anzeige: Pocket FMS